Time;durP1;ratioP1;P1;durP2;ratioP2;P2;SDS_P1;SDS_P2;PMS_P1;PMS_P2;Temp;Humidity;BMP_temperature;BMP_pressure;BME280_temperature;BME280_humidity;BME280_pressure;Samples;Min_cycle;Max_cycle;Signal;HPM_P1;HPM_P2
2021/03/18 00:00:11;;;;;;;5.75;3.90;;;0.90;99.90;;;;;;5041664;28;20684;-73
2021/03/18 00:02:38;;;;;;;6.60;3.70;;;0.80;99.90;;;;;;5041164;28;20221;-74
2021/03/18 00:05:06;;;;;;;4.43;3.50;;;0.70;99.90;;;;;;5041531;28;20739;-73
2021/03/18 00:07:33;;;;;;;4.15;3.53;;;0.70;99.90;;;;;;5041188;28;20201;-73
2021/03/18 00:10:00;;;;;;;7.13;4.07;;;0.70;99.90;;;;;;5040458;28;20262;-74
2021/03/18 00:12:27;;;;;;;4.25;3.83;;;0.60;99.90;;;;;;5041770;28;20327;-72
2021/03/18 00:14:54;;;;;;;6.20;4.43;;;0.60;99.90;;;;;;5040834;28;20211;-74
2021/03/18 00:17:21;;;;;;;5.28;3.65;;;0.60;99.90;;;;;;5041505;28;20220;-74
2021/03/18 00:19:48;;;;;;;5.40;3.42;;;0.60;99.90;;;;;;5040726;28;20201;-73
2021/03/18 00:22:14;;;;;;;4.55;3.40;;;0.60;99.90;;;;;;5041994;28;20594;-74
2021/03/18 00:24:41;;;;;;;5.85;4.13;;;0.60;99.90;;;;;;5041358;28;20684;-72
2021/03/18 00:27:07;;;;;;;5.95;4.95;;;0.60;99.90;;;;;;5041202;28;20604;-73
2021/03/18 00:29:34;;;;;;;4.50;3.67;;;0.70;99.90;;;;;;5041460;28;20215;-73
2021/03/18 00:32:01;;;;;;;4.32;3.88;;;0.70;99.90;;;;;;5040981;28;20644;-72
2021/03/18 00:34:28;;;;;;;5.13;4.30;;;0.80;99.90;;;;;;5041530;28;20209;-74
2021/03/18 00:36:55;;;;;;;5.80;3.75;;;0.80;99.90;;;;;;5041006;28;20205;-72
2021/03/18 00:39:21;;;;;;;9.07;4.75;;;0.80;99.90;;;;;;5040298;28;20271;-73
2021/03/18 00:41:48;;;;;;;5.90;3.80;;;0.80;99.90;;;;;;5040937;28;20731;-73
2021/03/18 00:44:15;;;;;;;7.43;4.28;;;0.80;99.90;;;;;;5040188;28;20877;-73
2021/03/18 00:46:41;;;;;;;4.72;4.20;;;0.80;99.90;;;;;;5041408;28;20216;-71
2021/03/18 00:49:10;;;;;;;4.88;4.10;;;0.80;99.90;;;;;;5042394;28;20201;-72
2021/03/18 00:51:37;;;;;;;4.22;3.83;;;0.90;99.90;;;;;;5041407;28;20302;-74
2021/03/18 00:54:04;;;;;;;4.40;3.80;;;0.90;99.90;;;;;;5040805;28;20526;-71
2021/03/18 00:56:30;;;;;;;5.05;3.80;;;0.80;99.90;;;;;;5039891;28;20390;-73
2021/03/18 00:58:56;;;;;;;6.88;3.67;;;0.90;99.90;;;;;;5042652;28;20236;-73
2021/03/18 01:01:25;;;;;;;5.32;4.13;;;0.80;99.90;;;;;;5044019;28;20221;-74
2021/03/18 01:03:52;;;;;;;4.32;3.92;;;0.80;99.90;;;;;;5044351;28;20714;-74
2021/03/18 01:06:21;;;;;;;5.03;4.18;;;0.80;99.90;;;;;;5043982;28;20209;-73
2021/03/18 01:08:48;;;;;;;5.65;4.25;;;0.70;99.90;;;;;;5042363;28;20232;-73
2021/03/18 01:11:16;;;;;;;6.10;3.85;;;0.70;99.90;;;;;;5047245;28;20517;-74
2021/03/18 01:13:44;;;;;;;5.72;4.25;;;0.80;99.90;;;;;;5047573;28;20201;-72
2021/03/18 01:16:14;;;;;;;5.20;4.32;;;0.70;99.90;;;;;;5047223;28;20205;-74
2021/03/18 01:18:42;;;;;;;4.75;4.05;;;0.70;99.90;;;;;;5046767;28;20237;-73
2021/03/18 01:21:09;;;;;;;8.25;4.15;;;0.80;99.90;;;;;;5046718;28;20221;-72
2021/03/18 01:23:37;;;;;;;4.93;3.90;;;0.70;99.90;;;;;;5047724;28;20211;-74
2021/03/18 01:26:03;;;;;;;4.60;4.15;;;0.70;99.90;;;;;;5047009;28;20497;-72
2021/03/18 01:28:30;;;;;;;4.22;3.83;;;0.70;99.90;;;;;;5047241;28;20209;-73
2021/03/18 01:30:56;;;;;;;4.88;4.05;;;0.70;99.90;;;;;;5047280;28;20224;-77
2021/03/18 01:33:23;;;;;;;4.50;3.90;;;0.70;99.90;;;;;;5115649;22;20979;-72
2021/03/18 01:35:49;;;;;;;7.38;4.20;;;0.70;99.90;;;;;;5031114;28;20198;-72
2021/03/18 01:38:16;;;;;;;4.60;3.70;;;0.70;99.90;;;;;;5030998;28;20299;-71
2021/03/18 01:40:43;;;;;;;7.60;5.03;;;0.70;99.90;;;;;;5030882;28;20666;-71
2021/03/18 01:43:10;;;;;;;5.45;3.70;;;0.70;99.90;;;;;;5030728;28;20217;-71
2021/03/18 01:45:36;;;;;;;4.28;3.47;;;0.80;99.90;;;;;;5030803;28;20430;-70
2021/03/18 01:48:03;;;;;;;4.88;4.15;;;0.70;99.90;;;;;;5030925;28;20198;-72
2021/03/18 01:50:32;;;;;;;4.75;3.50;;;0.80;99.90;;;;;;5030061;28;20209;-73
2021/03/18 01:52:58;;;;;;;3.28;2.97;;;0.80;99.90;;;;;;5031164;28;20251;-72
2021/03/18 01:55:29;;;;;;;7.30;4.15;;;0.80;99.90;;;;;;5030338;28;20197;-72
2021/03/18 01:57:57;;;;;;;5.22;4.07;;;0.80;99.90;;;;;;5030413;28;20701;-72
2021/03/18 02:00:25;;;;;;;4.05;3.30;;;0.90;99.90;;;;;;5029977;28;20212;-72
2021/03/18 02:02:52;;;;;;;5.13;3.85;;;0.80;99.90;;;;;;5030903;28;20565;-72
2021/03/18 02:05:19;;;;;;;3.45;3.15;;;0.90;99.90;;;;;;5029848;28;20209;-73
2021/03/18 02:07:46;;;;;;;3.72;3.30;;;0.90;99.90;;;;;;5030669;28;20212;-72
2021/03/18 02:10:12;;;;;;;3.50;3.15;;;0.80;99.90;;;;;;5028952;28;20202;-73
2021/03/18 02:12:39;;;;;;;3.80;3.35;;;0.90;99.90;;;;;;5030408;28;20225;-72
2021/03/18 02:15:09;;;;;;;7.10;4.18;;;0.90;99.90;;;;;;5045373;28;20547;-72
2021/03/18 02:17:42;;;;;;;3.83;3.42;;;0.90;99.90;;;;;;5049790;28;20687;-72
2021/03/18 02:20:34;;;;;;;4.10;3.75;;;0.80;99.90;;;;;;5048997;28;20224;-71
2021/03/18 02:23:36;;;;;;;5.38;4.00;;;0.80;99.90;;;;;;5049733;28;20208;-72
2021/03/18 02:26:15;;;;;;;4.35;3.95;;;0.80;99.90;;;;;;5050444;28;20197;-71
2021/03/18 02:28:53;;;;;;;5.15;3.58;;;0.80;99.90;;;;;;5049055;28;20216;-71
2021/03/18 02:31:33;;;;;;;7.60;4.05;;;0.70;99.90;;;;;;5046766;28;20225;-71
2021/03/18 02:34:33;;;;;;;5.82;3.80;;;0.80;99.90;;;;;;5048836;28;20208;-71
2021/03/18 02:37:06;;;;;;;4.97;3.83;;;0.80;99.90;;;;;;5049796;28;20248;-71
2021/03/18 02:39:36;;;;;;;4.40;3.78;;;0.80;99.90;;;;;;5049080;28;20689;-72
2021/03/18 02:42:05;;;;;;;4.45;3.35;;;0.70;99.90;;;;;;5049876;28;20265;-72
2021/03/18 02:44:34;;;;;;;3.72;3.38;;;0.70;99.90;;;;;;5049225;28;20561;-72
2021/03/18 02:47:04;;;;;;;7.00;3.78;;;0.80;99.90;;;;;;5049362;28;20253;-71
2021/03/18 02:49:33;;;;;;;4.72;3.78;;;0.80;99.90;;;;;;5048916;28;20205;-72
2021/03/18 02:52:02;;;;;;;3.50;3.20;;;0.70;99.90;;;;;;5049528;28;20602;-72
2021/03/18 02:54:29;;;;;;;3.90;3.50;;;0.80;99.90;;;;;;5049176;28;20606;-71
2021/03/18 02:57:00;;;;;;;7.15;4.20;;;0.80;99.90;;;;;;5049614;28;20205;-72
2021/03/18 02:59:32;;;;;;;7.57;3.80;;;0.80;99.90;;;;;;5047710;28;20225;-72
2021/03/18 03:01:59;;;;;;;7.80;3.90;;;0.80;99.90;;;;;;5049141;28;20225;-72
2021/03/18 03:04:27;;;;;;;3.67;3.33;;;0.80;99.90;;;;;;5048901;28;20239;-72
2021/03/18 03:06:54;;;;;;;4.88;3.92;;;0.80;99.90;;;;;;5049384;28;20246;-72
2021/03/18 03:09:22;;;;;;;5.63;3.80;;;0.80;99.90;;;;;;5048366;28;20205;-72
2021/03/18 03:11:49;;;;;;;6.68;3.90;;;0.80;99.90;;;;;;5048885;28;20221;-70
2021/03/18 03:14:19;;;;;;;4.13;3.33;;;0.90;99.90;;;;;;5048889;28;20614;-71
2021/03/18 03:16:46;;;;;;;3.97;3.40;;;0.90;99.90;;;;;;5049439;28;20205;-72
2021/03/18 03:19:13;;;;;;;4.07;3.20;;;0.90;99.90;;;;;;5048165;28;20765;-73
2021/03/18 03:21:40;;;;;;;6.82;3.08;;;0.90;99.90;;;;;;5049123;28;20229;-72
2021/03/18 03:24:08;;;;;;;3.72;3.13;;;0.90;99.90;;;;;;5048402;28;20687;-72
2021/03/18 03:26:36;;;;;;;6.10;4.45;;;0.90;99.90;;;;;;5049269;28;20733;-72
2021/03/18 03:29:03;;;;;;;4.05;3.15;;;0.80;99.90;;;;;;5048305;28;20201;-72
2021/03/18 03:31:30;;;;;;;6.97;3.90;;;0.70;99.90;;;;;;5048205;28;20236;-72
2021/03/18 03:33:57;;;;;;;6.32;3.35;;;0.70;99.90;;;;;;5048795;28;20220;-73
2021/03/18 03:36:23;;;;;;;5.13;3.50;;;0.70;99.90;;;;;;5048148;28;20209;-72
2021/03/18 03:38:50;;;;;;;7.53;3.90;;;0.70;99.90;;;;;;5048476;28;20225;-72
2021/03/18 03:41:17;;;;;;;6.28;3.95;;;0.60;99.90;;;;;;5048776;28;20263;-73
2021/03/18 03:43:44;;;;;;;5.03;3.63;;;0.60;99.90;;;;;;5049107;28;20212;-72
2021/03/18 03:46:10;;;;;;;3.45;3.15;;;0.70;99.90;;;;;;5048505;28;20231;-73
2021/03/18 03:48:36;;;;;;;4.85;3.67;;;0.70;99.90;;;;;;5047603;28;20201;-72
2021/03/18 03:51:03;;;;;;;6.70;4.25;;;0.70;99.90;;;;;;5048617;28;20224;-72
2021/03/18 03:53:39;;;;;;;10.27;3.85;;;0.80;99.90;;;;;;5048691;28;20735;-72
2021/03/18 03:56:17;;;;;;;6.30;3.75;;;0.80;99.90;;;;;;5048565;28;20236;-72
2021/03/18 03:58:49;;;;;;;6.38;4.15;;;0.80;99.90;;;;;;5048077;28;20217;-72
2021/03/18 04:01:21;;;;;;;5.10;4.15;;;0.80;99.90;;;;;;5048022;28;20216;-72
2021/03/18 04:03:47;;;;;;;4.85;3.92;;;0.80;99.90;;;;;;5048334;28;20687;-72
2021/03/18 04:06:16;;;;;;;8.00;3.95;;;0.90;99.90;;;;;;5048436;28;20236;-72
2021/03/18 04:08:44;;;;;;;4.75;3.70;;;0.90;99.90;;;;;;5047673;28;20201;-72
2021/03/18 04:11:13;;;;;;;7.07;3.30;;;0.90;99.90;;;;;;5048063;28;20644;-72
2021/03/18 04:13:41;;;;;;;5.72;3.67;;;0.90;99.90;;;;;;5047813;28;20627;-71
2021/03/18 04:16:08;;;;;;;4.95;3.47;;;0.90;99.90;;;;;;5048373;28;20590;-73
2021/03/18 04:18:38;;;;;;;4.32;3.80;;;0.90;99.90;;;;;;5047569;28;20589;-71
2021/03/18 04:21:07;;;;;;;4.68;3.65;;;0.90;99.90;;;;;;5048717;28;20704;-73
2021/03/18 04:23:35;;;;;;;6.90;3.88;;;1.00;99.90;;;;;;5048428;28;20799;-72
2021/03/18 04:26:02;;;;;;;5.97;3.67;;;1.00;99.90;;;;;;5048263;28;20584;-72
2021/03/18 04:28:30;;;;;;;4.82;3.22;;;1.00;99.90;;;;;;5048287;28;20201;-73
2021/03/18 04:30:59;;;;;;;4.97;3.80;;;1.00;99.90;;;;;;5047802;28;20231;-73
2021/03/18 04:33:28;;;;;;;4.13;3.28;;;1.00;99.90;;;;;;5040340;28;20215;-73
2021/03/18 04:35:57;;;;;;;3.45;3.15;;;1.10;99.90;;;;;;5007803;28;20194;-73
2021/03/18 04:38:25;;;;;;;6.15;3.75;;;1.10;99.90;;;;;;5019522;28;20217;-72
2021/03/18 04:40:53;;;;;;;4.85;3.70;;;1.00;99.90;;;;;;5008994;28;20581;-72
2021/03/18 04:43:19;;;;;;;3.90;3.30;;;1.00;99.90;;;;;;5010968;28;20256;-73
2021/03/18 04:45:46;;;;;;;4.40;3.47;;;0.90;99.90;;;;;;5012590;28;20206;-73
2021/03/18 04:48:13;;;;;;;3.60;3.30;;;0.90;99.90;;;;;;5011869;28;20203;-71
2021/03/18 04:50:41;;;;;;;5.40;4.05;;;0.90;99.90;;;;;;5016280;28;20232;-72
2021/03/18 04:53:07;;;;;;;4.65;4.00;;;0.90;99.90;;;;;;5031852;28;20263;-70
2021/03/18 04:55:34;;;;;;;7.70;4.55;;;0.90;99.90;;;;;;5031864;28;20206;-71
2021/03/18 04:58:02;;;;;;;4.32;3.90;;;0.90;99.90;;;;;;5031471;28;20218;-71
2021/03/18 05:00:29;;;;;;;6.20;3.90;;;1.00;99.90;;;;;;5031161;28;20213;-71
2021/03/18 05:03:01;;;;;;;4.18;3.42;;;1.00;99.90;;;;;;5046457;28;20209;-71
2021/03/18 05:05:28;;;;;;;7.88;3.10;;;1.00;99.90;;;;;;5038818;28;20205;-71
2021/03/18 05:07:57;;;;;;;7.05;3.60;;;1.00;99.90;;;;;;5026891;28;20190;-71
2021/03/18 05:10:26;;;;;;;5.05;3.70;;;1.00;99.90;;;;;;5027458;28;20432;-71
2021/03/18 05:12:54;;;;;;;6.20;3.78;;;1.00;99.90;;;;;;5031450;28;20221;-70
2021/03/18 05:15:22;;;;;;;5.10;4.20;;;1.00;99.90;;;;;;5035610;28;20464;-71
2021/03/18 05:17:49;;;;;;;6.93;4.50;;;1.10;99.90;;;;;;5048344;28;20490;-71
2021/03/18 05:20:17;;;;;;;5.10;4.60;;;1.10;99.90;;;;;;5029971;28;20464;-71
2021/03/18 05:22:46;;;;;;;3.90;3.25;;;1.10;99.90;;;;;;5031430;28;20202;-71
2021/03/18 05:25:15;;;;;;;6.03;3.72;;;1.10;99.90;;;;;;5031003;28;20214;-70
2021/03/18 05:27:42;;;;;;;6.30;3.72;;;1.10;99.90;;;;;;5030554;28;20210;-70
2021/03/18 05:30:12;;;;;;;7.57;4.28;;;1.10;99.90;;;;;;5028667;28;20205;-71
2021/03/18 05:32:39;;;;;;;4.93;3.95;;;1.10;99.90;;;;;;5028061;28;20249;-71
2021/03/18 05:35:07;;;;;;;6.07;4.03;;;1.10;99.90;;;;;;5029545;28;20210;-70
2021/03/18 05:37:34;;;;;;;8.73;5.03;;;1.10;99.90;;;;;;5030230;28;20205;-71
2021/03/18 05:40:00;;;;;;;4.82;3.95;;;1.10;99.90;;;;;;5033347;28;20197;-70
2021/03/18 05:42:28;;;;;;;7.35;4.20;;;1.20;99.90;;;;;;5049352;28;20221;-71
2021/03/18 05:44:54;;;;;;;6.53;3.70;;;1.30;99.90;;;;;;5038968;28;20201;-70
2021/03/18 05:47:21;;;;;;;4.18;3.78;;;1.30;99.90;;;;;;5030158;28;20205;-70
2021/03/18 05:49:47;;;;;;;5.65;4.03;;;1.40;99.90;;;;;;5029758;28;20194;-70
2021/03/18 05:52:14;;;;;;;5.18;4.28;;;1.30;99.90;;;;;;5032222;28;20643;-70
2021/03/18 05:54:48;;;;;;;5.05;4.55;;;1.30;99.90;;;;;;5049157;28;20583;-70
2021/03/18 05:57:15;;;;;;;5.47;4.10;;;1.30;99.90;;;;;;5050086;28;20421;-70
2021/03/18 05:59:44;;;;;;;5.40;3.95;;;1.30;99.90;;;;;;5049788;28;20312;-70
2021/03/18 06:02:10;;;;;;;4.70;3.65;;;1.20;99.90;;;;;;5049619;28;20228;-71
2021/03/18 06:04:36;;;;;;;5.22;4.45;;;1.20;99.90;;;;;;5049218;28;20736;-71
2021/03/18 06:07:03;;;;;;;7.18;4.80;;;1.20;99.90;;;;;;5049996;28;20208;-70
2021/03/18 06:09:29;;;;;;;5.70;4.18;;;1.20;99.90;;;;;;5049062;28;20197;-70
2021/03/18 06:11:56;;;;;;;6.60;4.75;;;1.20;99.90;;;;;;5050181;28;20594;-70
2021/03/18 06:14:22;;;;;;;4.80;4.30;;;1.30;99.90;;;;;;5049036;28;20208;-70
2021/03/18 06:16:50;;;;;;;5.45;4.68;;;1.30;99.90;;;;;;5049753;28;20209;-71
2021/03/18 06:19:16;;;;;;;14.93;5.45;;;1.40;99.90;;;;;;5048910;28;20217;-70
2021/03/18 06:21:45;;;;;;;7.80;5.30;;;1.40;99.90;;;;;;5049760;28;20221;-70
2021/03/18 06:24:12;;;;;;;7.78;5.53;;;1.40;99.90;;;;;;5049604;28;20201;-70
2021/03/18 06:26:39;;;;;;;8.55;6.38;;;1.40;99.90;;;;;;5049733;28;20197;-70
2021/03/18 06:29:05;;;;;;;8.13;5.85;;;1.40;99.90;;;;;;5048861;28;20235;-70
2021/03/18 06:31:32;;;;;;;7.15;4.90;;;1.50;99.90;;;;;;5049155;28;20229;-70
2021/03/18 06:34:00;;;;;;;9.80;6.03;;;1.50;99.90;;;;;;5049111;28;20216;-70
2021/03/18 06:36:28;;;;;;;4.78;4.30;;;1.50;99.90;;;;;;5049296;28;20300;-70
2021/03/18 06:39:04;;;;;;;6.30;4.90;;;1.60;99.90;;;;;;5049241;28;20601;-70
2021/03/18 06:41:35;;;;;;;7.30;4.53;;;1.60;99.90;;;;;;5049083;28;20235;-70
2021/03/18 06:44:02;;;;;;;6.30;4.35;;;1.60;99.90;;;;;;5049563;28;20208;-70
2021/03/18 06:46:28;;;;;;;9.27;4.60;;;1.80;99.90;;;;;;5047676;28;20216;-71
2021/03/18 06:48:54;;;;;;;5.65;4.47;;;1.80;99.90;;;;;;5029319;28;20202;-70
2021/03/18 06:51:24;;;;;;;9.30;4.53;;;1.80;99.90;;;;;;5028680;28;20225;-70
2021/03/18 06:53:51;;;;;;;9.02;4.45;;;1.90;99.90;;;;;;5028380;28;20204;-70
2021/03/18 06:56:31;;;;;;;6.10;4.70;;;1.90;99.90;;;;;;5028543;28;20212;-70
2021/03/18 06:58:57;;;;;;;6.68;4.20;;;1.90;99.90;;;;;;5028404;28;20697;-70
2021/03/18 07:01:26;;;;;;;5.32;4.43;;;2.10;99.90;;;;;;5028386;28;20217;-70
2021/03/18 07:04:00;;;;;;;5.38;4.10;;;2.20;99.90;;;;;;5028962;28;20629;-70
2021/03/18 07:06:29;;;;;;;5.03;4.40;;;2.40;99.90;;;;;;5027897;28;20205;-70
2021/03/18 07:09:06;;;;;;;5.15;4.30;;;2.60;99.90;;;;;;5028489;28;20202;-70
2021/03/18 07:11:38;;;;;;;4.28;3.72;;;2.60;99.90;;;;;;5028639;28;20594;-70
2021/03/18 07:14:05;;;;;;;6.15;4.00;;;2.70;99.90;;;;;;5029151;28;21727;-70
2021/03/18 07:16:40;;;;;;;6.70;4.03;;;2.90;99.90;;;;;;5028259;28;20206;-71
2021/03/18 07:19:07;;;;;;;6.05;4.65;;;2.90;99.90;;;;;;5027666;28;20235;-70
2021/03/18 07:21:36;;;;;;;7.03;4.47;;;3.00;99.90;;;;;;5027934;28;20238;-70
2021/03/18 07:24:03;;;;;;;8.23;4.57;;;3.10;99.90;;;;;;5030646;28;20209;-70
2021/03/18 07:26:29;;;;;;;7.32;5.25;;;3.20;99.90;;;;;;5048205;28;20200;-70
2021/03/18 07:29:14;;;;;;;7.07;5.03;;;3.40;99.90;;;;;;5047103;28;20691;-70
2021/03/18 07:31:41;;;;;;;4.53;4.05;;;3.70;99.90;;;;;;5047888;28;20232;-71
2021/03/18 07:34:08;;;;;;;5.78;4.68;;;4.10;99.90;;;;;;5106722;22;22108;-73
2021/03/18 07:36:35;;;;;;;7.47;4.30;;;4.40;99.90;;;;;;5028458;28;20237;-72
2021/03/18 07:39:03;;;;;;;7.28;4.47;;;4.90;99.90;;;;;;5027535;28;20304;-73
2021/03/18 07:41:32;;;;;;;4.82;4.20;;;5.20;99.90;;;;;;5027922;28;20640;-73
2021/03/18 07:43:59;;;;;;;7.97;5.00;;;5.40;99.90;;;;;;5035477;28;20207;-74
2021/03/18 07:46:26;;;;;;;5.53;4.50;;;5.20;99.90;;;;;;5048182;28;20267;-72
2021/03/18 07:48:56;;;;;;;7.03;5.25;;;5.30;99.90;;;;;;5047871;28;20200;-72
2021/03/18 07:51:25;;;;;;;8.38;5.78;;;5.40;99.90;;;;;;5047704;28;20675;-73
2021/03/18 07:53:54;;;;;;;8.40;5.43;;;5.20;99.90;;;;;;5048263;28;20201;-74
2021/03/18 07:56:21;;;;;;;9.23;4.97;;;5.20;99.90;;;;;;5047527;28;20204;-72
2021/03/18 07:58:48;;;;;;;7.28;4.82;;;5.40;99.90;;;;;;5047428;28;20696;-73
2021/03/18 08:01:35;;;;;;;8.20;5.63;;;5.70;99.90;;;;;;5047530;28;20220;-72
2021/03/18 08:04:03;;;;;;;5.97;4.78;;;6.30;99.90;;;;;;5047476;28;20204;-73
2021/03/18 08:06:54;;;;;;;6.65;5.28;;;7.10;99.90;;;;;;5048173;28;20606;-73
2021/03/18 08:09:49;;;;;;;7.25;5.90;;;8.10;99.90;;;;;;5032140;28;20698;-72
2021/03/18 08:12:16;;;;;;;6.82;5.32;;;9.00;99.90;;;;;;5040530;28;20240;-72
2021/03/18 08:14:42;;;;;;;7.72;5.25;;;9.40;98.70;;;;;;5040627;28;20251;-72
2021/03/18 08:17:28;;;;;;;5.95;4.93;;;8.90;98.60;;;;;;5027176;28;20212;-72
2021/03/18 08:19:54;;;;;;;7.25;5.28;;;8.30;97.50;;;;;;5031122;28;20232;-72
2021/03/18 08:22:28;;;;;;;6.72;5.20;;;8.30;99.10;;;;;;5029613;28;20232;-71
2021/03/18 08:25:25;;;;;;;6.15;5.13;;;8.80;98.40;;;;;;5016755;28;20226;-70
2021/03/18 08:27:52;;;;;;;5.20;4.55;;;9.60;97.00;;;;;;5012297;28;20213;-72
2021/03/18 08:30:23;;;;;;;8.32;5.20;;;10.30;95.70;;;;;;5011553;28;20210;-72
2021/03/18 08:32:50;;;;;;;6.78;4.95;;;11.20;94.50;;;;;;5011865;28;20202;-72
2021/03/18 08:35:27;;;;;;;6.43;5.35;;;11.40;93.80;;;;;;5011415;28;20210;-71
2021/03/18 08:37:55;;;;;;;7.07;5.82;;;10.60;94.30;;;;;;5012528;28;20202;-71
2021/03/18 08:40:30;;;;;;;7.97;5.65;;;10.20;93.70;;;;;;5011361;28;20608;-72
2021/03/18 08:43:05;;;;;;;5.85;4.80;;;10.00;94.20;;;;;;5011913;28;20220;-71
2021/03/18 08:45:42;;;;;;;7.38;5.15;;;9.40;94.20;;;;;;5022311;28;20301;-73
2021/03/18 08:48:19;;;;;;;7.03;5.30;;;8.80;95.10;;;;;;5050994;28;20201;-73
2021/03/18 08:50:55;;;;;;;8.25;4.90;;;8.10;95.80;;;;;;5051358;28;20232;-73
2021/03/18 08:53:36;;;;;;;8.10;5.20;;;7.60;96.50;;;;;;5051243;28;20668;-73
2021/03/18 08:56:06;;;;;;;10.98;5.38;;;7.10;96.80;;;;;;5050890;28;20197;-72
2021/03/18 08:58:45;;;;;;;6.68;5.18;;;6.70;97.80;;;;;;5050669;28;20302;-70
2021/03/18 09:01:15;;;;;;;9.18;5.28;;;6.40;97.80;;;;;;5051267;28;20229;-72
2021/03/18 09:03:42;;;;;;;8.88;5.35;;;6.40;97.90;;;;;;5051509;28;20197;-72
2021/03/18 09:06:09;;;;;;;6.03;5.40;;;6.30;98.30;;;;;;5051271;28;20201;-73
2021/03/18 09:08:35;;;;;;;6.78;4.90;;;6.10;98.30;;;;;;5050778;28;20587;-73
2021/03/18 09:11:02;;;;;;;10.20;4.78;;;5.80;96.80;;;;;;5050241;28;20231;-73
2021/03/18 09:13:29;;;;;;;6.57;5.60;;;5.60;97.60;;;;;;5051027;28;20200;-73
2021/03/18 09:15:57;;;;;;;7.45;4.93;;;5.40;98.80;;;;;;5051369;28;20205;-73
2021/03/18 09:18:25;;;;;;;6.10;4.53;;;5.20;99.20;;;;;;5053594;28;20603;-73
2021/03/18 09:20:56;;;;;;;6.57;4.85;;;5.20;99.30;;;;;;5051457;28;20229;-73
2021/03/18 09:23:24;;;;;;;7.82;5.50;;;5.10;99.20;;;;;;5036784;28;20211;-73
2021/03/18 09:25:52;;;;;;;5.60;5.10;;;5.20;98.80;;;;;;5040911;28;20204;-72
2021/03/18 09:28:19;;;;;;;5.60;5.10;;;5.50;98.70;;;;;;5050138;28;20197;-73
2021/03/18 09:30:47;;;;;;;5.97;5.07;;;5.70;98.80;;;;;;5050688;28;20225;-72
2021/03/18 09:33:24;;;;;;;6.35;5.07;;;5.70;97.70;;;;;;5051097;28;20205;-72
2021/03/18 09:35:52;;;;;;;6.15;4.93;;;5.60;98.10;;;;;;5050529;28;20258;-72
2021/03/18 09:38:20;;;;;;;7.68;4.45;;;5.50;98.70;;;;;;5050706;28;20221;-73
2021/03/18 09:40:47;;;;;;;5.65;4.32;;;5.50;98.90;;;;;;5049823;28;20225;-72
2021/03/18 09:43:15;;;;;;;8.70;5.60;;;5.40;98.90;;;;;;5050070;28;20203;-72
2021/03/18 09:45:54;;;;;;;5.15;4.65;;;5.20;99.50;;;;;;5050915;28;20212;-72
2021/03/18 09:48:25;;;;;;;9.45;5.60;;;5.20;99.40;;;;;;5049820;28;20477;-72
2021/03/18 09:50:53;;;;;;;5.97;4.90;;;5.10;99.50;;;;;;5050261;28;20221;-73
2021/03/18 09:53:20;;;;;;;6.78;5.03;;;5.00;99.90;;;;;;5049786;28;20661;-74
2021/03/18 09:55:46;;;;;;;8.68;5.25;;;4.90;99.90;;;;;;5050363;28;20201;-74
2021/03/18 09:58:14;;;;;;;6.80;4.78;;;4.80;99.90;;;;;;5049861;28;20378;-73
2021/03/18 10:00:41;;;;;;;5.32;4.82;;;4.80;99.90;;;;;;5034110;28;20225;-73
2021/03/18 10:03:09;;;;;;;6.65;4.60;;;4.90;99.90;;;;;;5029894;28;20206;-73
2021/03/18 10:05:36;;;;;;;6.80;5.10;;;4.90;99.90;;;;;;5029777;28;20352;-73
2021/03/18 10:08:03;;;;;;;5.93;5.05;;;4.90;99.90;;;;;;5030427;28;20283;-73
2021/03/18 10:10:31;;;;;;;7.25;5.10;;;4.90;99.90;;;;;;5029410;28;20708;-72
2021/03/18 10:12:58;;;;;;;8.18;5.32;;;4.90;99.90;;;;;;5029571;28;20296;-73
2021/03/18 10:15:24;;;;;;;7.70;5.20;;;4.70;99.90;;;;;;5040957;28;20201;-72
2021/03/18 10:17:53;;;;;;;6.22;4.40;;;4.50;99.90;;;;;;5049818;28;20205;-73
2021/03/18 10:20:22;;;;;;;6.53;4.68;;;4.50;99.90;;;;;;5049021;28;20630;-73
2021/03/18 10:22:50;;;;;;;9.30;4.75;;;4.50;99.90;;;;;;5049721;28;20319;-73
2021/03/18 10:25:23;;;;;;;6.05;4.85;;;4.60;99.90;;;;;;5048884;28;20205;-72
2021/03/18 10:27:51;;;;;;;5.20;4.70;;;4.50;99.90;;;;;;5049967;28;20296;-72
2021/03/18 10:30:19;;;;;;;8.02;5.20;;;4.60;99.90;;;;;;5048775;28;20201;-71
2021/03/18 10:33:06;;;;;;;6.30;4.60;;;4.70;99.90;;;;;;5045992;28;20204;-72
2021/03/18 10:35:36;;;;;;;4.90;4.30;;;4.80;99.00;;;;;;5049629;28;20240;-73
2021/03/18 10:38:03;;;;;;;8.77;3.80;;;4.90;99.50;;;;;;5049502;28;20189;-73
2021/03/18 10:40:31;;;;;;;5.25;3.92;;;4.90;99.30;;;;;;5048832;28;20205;-73
2021/03/18 10:42:59;;;;;;;4.10;3.42;;;4.80;99.90;;;;;;5049079;28;20201;-72
2021/03/18 10:45:31;;;;;;;4.10;3.70;;;5.00;99.90;;;;;;5037736;28;20206;-73
2021/03/18 10:47:59;;;;;;;5.90;3.40;;;5.10;99.60;;;;;;5029337;28;20210;-73
2021/03/18 10:50:29;;;;;;;4.47;4.00;;;5.30;99.20;;;;;;5028253;28;20735;-73
2021/03/18 10:53:00;;;;;;;7.72;4.72;;;5.50;99.00;;;;;;5029500;28;20568;-73
2021/03/18 10:55:30;;;;;;;9.65;4.47;;;5.60;99.00;;;;;;5029333;28;20206;-74
2021/03/18 10:57:58;;;;;;;4.10;3.45;;;5.60;98.40;;;;;;5029370;28;20201;-72
2021/03/18 11:00:26;;;;;;;4.30;3.67;;;5.80;98.00;;;;;;5028318;28;20230;-74
2021/03/18 11:03:04;;;;;;;5.57;4.70;;;6.10;98.50;;;;;;5028739;28;20340;-73
2021/03/18 11:05:33;;;;;;;5.07;3.97;;;6.50;97.30;;;;;;5040148;28;20208;-73
2021/03/18 11:08:01;;;;;;;3.80;3.50;;;7.30;97.10;;;;;;5048685;28;20213;-72
2021/03/18 11:10:39;;;;;;;4.13;3.72;;;8.50;95.50;;;;;;5048385;28;20433;-73
2021/03/18 11:13:08;;;;;;;6.25;4.20;;;9.20;94.50;;;;;;5048646;28;20201;-72
2021/03/18 11:15:51;;;;;;;4.15;3.75;;;9.60;94.30;;;;;;5049336;28;20259;-72
2021/03/18 11:18:18;;;;;;;5.20;4.45;;;9.20;94.30;;;;;;5048081;28;20228;-73
2021/03/18 11:20:47;;;;;;;4.85;3.63;;;8.90;94.60;;;;;;5048385;28;20803;-72
2021/03/18 11:23:14;;;;;;;5.13;3.28;;;8.70;93.60;;;;;;5048319;28;20239;-72
2021/03/18 11:25:41;;;;;;;4.53;3.60;;;8.40;93.60;;;;;;5048777;28;20622;-72
2021/03/18 11:28:13;;;;;;;4.97;3.25;;;8.30;94.30;;;;;;5044940;28;20729;-73
2021/03/18 11:30:42;;;;;;;7.32;2.85;;;8.20;93.60;;;;;;5028238;28;20225;-73
2021/03/18 11:33:20;;;;;;;5.20;3.30;;;8.20;94.30;;;;;;5028762;28;20213;-73
2021/03/18 11:35:49;;;;;;;3.40;3.10;;;8.50;93.40;;;;;;5029371;28;20208;-73
2021/03/18 11:38:17;;;;;;;6.28;3.38;;;8.40;92.40;;;;;;5033393;28;20209;-73
2021/03/18 11:40:44;;;;;;;3.50;3.20;;;8.40;92.80;;;;;;5048347;28;20217;-73
2021/03/18 11:43:11;;;;;;;3.72;3.35;;;8.40;93.10;;;;;;5048395;28;20223;-72
2021/03/18 11:45:37;;;;;;;3.58;3.00;;;8.50;94.50;;;;;;5048867;28;20251;-73
2021/03/18 11:48:05;;;;;;;8.07;3.83;;;8.40;92.90;;;;;;5047018;28;20205;-73
2021/03/18 11:50:31;;;;;;;3.50;3.20;;;8.30;92.40;;;;;;5047986;28;20666;-73
2021/03/18 11:52:57;;;;;;;5.97;4.28;;;8.40;93.20;;;;;;5047694;28;20262;-73
2021/03/18 11:55:26;;;;;;;3.40;3.10;;;8.50;91.90;;;;;;5048468;28;20256;-72
2021/03/18 11:57:57;;;;;;;3.53;3.15;;;8.50;91.60;;;;;;5043172;28;20221;-73
2021/03/18 12:00:24;;;;;;;4.70;3.92;;;8.30;91.60;;;;;;5022391;28;20219;-73
2021/03/18 12:02:51;;;;;;;6.70;3.33;;;8.20;92.20;;;;;;5019866;28;20264;-72
2021/03/18 12:05:17;;;;;;;5.40;4.05;;;8.10;93.20;;;;;;5015939;28;20232;-72
2021/03/18 12:07:43;;;;;;;4.30;3.90;;;8.10;93.00;;;;;;5018468;28;20205;-72
2021/03/18 12:10:11;;;;;;;4.55;3.70;;;7.90;93.30;;;;;;5012610;28;20237;-72
2021/03/18 12:12:38;;;;;;;5.65;3.70;;;7.90;93.40;;;;;;5015819;28;20557;-72
2021/03/18 12:15:06;;;;;;;5.07;4.55;;;7.80;93.50;;;;;;5013137;28;20194;-71
2021/03/18 12:17:36;;;;;;;4.32;3.95;;;7.80;93.50;;;;;;5009665;28;20195;-71
2021/03/18 12:20:06;;;;;;;3.65;3.35;;;7.90;93.60;;;;;;5014627;28;20218;-70
2021/03/18 12:22:32;;;;;;;6.25;3.95;;;8.00;94.10;;;;;;5018429;28;20260;-73
2021/03/18 12:24:58;;;;;;;4.20;3.70;;;8.20;92.50;;;;;;5025821;28;20197;-73
2021/03/18 12:27:25;;;;;;;4.90;3.70;;;9.50;92.70;;;;;;5028443;28;20197;-73
2021/03/18 12:29:53;;;;;;;3.53;3.10;;;11.30;90.00;;;;;;5027368;28;20255;-71
2021/03/18 12:32:19;;;;;;;3.75;3.42;;;12.40;84.60;;;;;;5028293;28;20283;-74
2021/03/18 12:34:45;;;;;;;6.93;3.50;;;12.20;78.80;;;;;;5036215;28;20213;-73
2021/03/18 12:37:12;;;;;;;3.58;3.22;;;11.40;79.20;;;;;;5021782;28;20202;-73
2021/03/18 12:39:38;;;;;;;3.50;3.03;;;11.20;87.20;;;;;;5008379;28;20219;-72
2021/03/18 12:42:04;;;;;;;3.45;3.15;;;11.00;85.00;;;;;;5008175;28;20303;-71
2021/03/18 12:44:31;;;;;;;4.80;3.50;;;10.60;89.10;;;;;;5025991;28;20680;-71
2021/03/18 12:46:58;;;;;;;4.22;3.83;;;10.00;91.50;;;;;;5028363;28;20225;-73
2021/03/18 12:49:24;;;;;;;9.82;3.70;;;9.10;93.50;;;;;;5028413;28;20255;-72
2021/03/18 12:51:50;;;;;;;5.68;4.10;;;8.40;95.10;;;;;;5027923;28;20230;-73
2021/03/18 12:54:16;;;;;;;4.95;3.85;;;7.90;96.20;;;;;;5028804;28;20210;-73
2021/03/18 12:56:42;;;;;;;4.90;3.90;;;7.30;96.90;;;;;;5028267;28;20225;-72
2021/03/18 12:59:09;;;;;;;8.10;4.45;;;6.70;97.90;;;;;;5027623;28;20217;-73
2021/03/18 13:01:35;;;;;;;6.30;4.85;;;6.40;98.70;;;;;;5028371;28;20226;-73
2021/03/18 13:04:02;;;;;;;6.90;4.30;;;6.30;99.30;;;;;;5028701;28;20209;-71